createdAt,value
2019-04-23T00:00:40.717Z,8.00
2019-04-23T00:02:33.170Z,8.00
2019-04-23T00:03:40.322Z,8.00
2019-04-23T00:04:36.842Z,8.00
2019-04-23T00:06:43.331Z,8.00
2019-04-23T00:07:51.514Z,8.00
2019-04-23T00:09:43.827Z,8.00
2019-04-23T00:10:33.487Z,8.00
2019-04-23T00:11:41.279Z,8.00
2019-04-23T00:13:45.371Z,8.00
2019-04-23T00:14:47.635Z,8.00
2019-04-23T00:15:40.980Z,8.00
2019-04-23T00:16:40.792Z,8.00
2019-04-23T00:17:43.773Z,8.00
2019-04-23T00:18:42.579Z,8.00
2019-04-23T00:19:45.137Z,8.00
2019-04-23T00:20:45.996Z,8.00
2019-04-23T00:21:40.549Z,8.00
2019-04-23T00:22:45.341Z,8.00
2019-04-23T00:23:47.887Z,8.00
2019-04-23T00:25:09.017Z,8.00
2019-04-23T00:26:53.702Z,8.00
2019-04-23T00:28:06.597Z,8.00
2019-04-23T00:28:45.664Z,8.00
2019-04-23T00:29:46.180Z,8.00
2019-04-23T00:30:48.273Z,8.00
2019-04-23T00:31:39.190Z,8.00
2019-04-23T00:32:40.343Z,8.00
2019-04-23T00:33:34.626Z,8.00
2019-04-23T00:34:42.675Z,8.00
2019-04-23T00:35:38.907Z,8.00
2019-04-23T00:36:37.768Z,8.00
2019-04-23T00:37:35.315Z,8.00
2019-04-23T00:38:39.548Z,8.00
2019-04-23T00:39:41.233Z,8.00
2019-04-23T00:40:39.076Z,8.00
2019-04-23T00:42:41.502Z,8.00
2019-04-23T00:43:43.266Z,8.00
2019-04-23T00:46:41.920Z,8.00
2019-04-23T00:47:41.420Z,8.00
2019-04-23T00:48:42.843Z,8.00
2019-04-23T00:49:40.097Z,8.00
2019-04-23T00:50:44.980Z,8.00
2019-04-23T00:51:47.114Z,8.00
2019-04-23T00:52:40.527Z,8.00
2019-04-23T00:53:32.711Z,8.00
2019-04-23T00:54:40.373Z,8.00
2019-04-23T00:55:44.805Z,8.00
2019-04-23T00:56:50.835Z,8.00
2019-04-23T00:58:41.547Z,8.00
2019-04-23T00:59:46.844Z,8.00
2019-04-23T01:00:43.529Z,8.00
2019-04-23T01:01:42.706Z,8.00
2019-04-23T01:03:33.915Z,8.00
2019-04-23T01:04:39.713Z,8.00
2019-04-23T01:06:39.356Z,8.00
2019-04-23T01:07:40.414Z,8.00
2019-04-23T01:08:36.763Z,8.00
2019-04-23T01:09:49.239Z,8.00
2019-04-23T01:10:45.851Z,8.00
2019-04-23T01:11:39.190Z,8.00
2019-04-23T01:14:39.675Z,8.00
2019-04-23T01:15:42.742Z,8.00
2019-04-23T01:16:38.847Z,8.00
2019-04-23T01:17:58.259Z,8.00
2019-04-23T01:18:49.098Z,8.00
2019-04-23T01:19:41.768Z,8.00
2019-04-23T01:20:44.513Z,8.00
2019-04-23T01:21:18.026Z,8.00
2019-04-23T01:22:19.040Z,8.00
2019-04-23T01:23:21.927Z,8.00
2019-04-23T01:24:21.908Z,8.00
2019-04-23T01:25:24.749Z,8.00
2019-04-23T01:26:34.371Z,8.00
2019-04-23T01:28:00.371Z,8.00
2019-04-23T01:29:42.559Z,8.00
2019-04-23T01:30:41.120Z,8.00
2019-04-23T01:31:43.334Z,8.00
2019-04-23T01:32:43.690Z,8.00
2019-04-23T01:33:47.234Z,8.00
2019-04-23T01:34:51.682Z,8.00
2019-04-23T01:35:41.374Z,8.00
2019-04-23T01:36:36.387Z,8.00
2019-04-23T01:37:41.201Z,8.00
2019-04-23T01:38:45.552Z,8.00
2019-04-23T01:39:45.427Z,8.00
2019-04-23T01:40:40.946Z,8.00
2019-04-23T01:41:49.237Z,8.00
2019-04-23T01:43:42.897Z,8.00
2019-04-23T01:45:35.773Z,8.00
2019-04-23T01:47:05.925Z,8.00
2019-04-23T01:47:45.154Z,8.00
2019-04-23T01:48:47.071Z,8.00
2019-04-23T01:50:48.337Z,8.00
2019-04-23T01:51:49.675Z,8.00
2019-04-23T01:52:50.560Z,8.00
2019-04-23T01:53:45.497Z,8.00
2019-04-23T01:54:45.545Z,8.00
2019-04-23T01:56:38.537Z,8.00
2019-04-23T01:57:47.209Z,8.00
2019-04-23T01:58:45.358Z,8.00
2019-04-23T01:59:46.170Z,8.00
2019-04-23T02:00:45.183Z,8.00
2019-04-23T02:01:48.008Z,8.00
2019-04-23T02:02:49.863Z,8.00
2019-04-23T02:03:43.455Z,8.00
2019-04-23T02:04:45.737Z,8.00
2019-04-23T02:05:42.663Z,8.00
2019-04-23T02:06:45.786Z,8.00
2019-04-23T02:08:48.624Z,8.00
2019-04-23T02:09:52.784Z,8.00
2019-04-23T02:11:49.085Z,8.00
2019-04-23T02:12:49.934Z,8.00
2019-04-23T02:13:43.976Z,8.00
2019-04-23T02:14:48.222Z,8.00
2019-04-23T02:15:44.054Z,8.00
2019-04-23T02:16:47.833Z,8.00
2019-04-23T02:17:47.195Z,8.00
2019-04-23T02:18:43.147Z,8.00
2019-04-23T02:19:47.966Z,8.00
2019-04-23T02:20:43.181Z,8.00
2019-04-23T02:21:47.384Z,8.00
2019-04-23T02:23:09.812Z,8.00
2019-04-23T02:23:43.477Z,8.00
2019-04-23T02:24:51.165Z,8.00
2019-04-23T02:25:54.227Z,8.00
2019-04-23T02:26:46.810Z,8.00
2019-04-23T02:27:47.075Z,8.00
2019-04-23T02:28:49.595Z,8.00
2019-04-23T02:29:56.000Z,8.00
2019-04-23T02:32:05.181Z,8.00
2019-04-23T02:32:59.337Z,8.00
2019-04-23T02:33:49.973Z,8.00
2019-04-23T02:35:55.822Z,8.00
2019-04-23T02:36:59.578Z,8.00
2019-04-23T02:41:57.913Z,8.00
2019-04-23T02:43:00.964Z,8.00
2019-04-23T02:43:46.006Z,8.00
2019-04-23T02:44:46.997Z,8.00
2019-04-23T02:45:56.946Z,8.00
2019-04-23T02:46:56.603Z,8.00
2019-04-23T02:47:53.064Z,8.00
2019-04-23T02:48:52.506Z,8.00
2019-04-23T02:50:01.520Z,8.00
2019-04-23T02:51:52.735Z,8.00
2019-04-23T02:52:48.925Z,8.00
2019-04-23T02:55:54.994Z,8.00
2019-04-23T02:57:56.267Z,8.00
2019-04-23T03:00:05.614Z,8.00
2019-04-23T03:01:11.335Z,8.00
2019-04-23T03:01:58.030Z,8.00
2019-04-23T03:04:50.826Z,8.00
2019-04-23T03:05:51.135Z,8.00
2019-04-23T03:06:56.047Z,8.00
2019-04-23T03:08:46.842Z,8.00
2019-04-23T03:10:56.058Z,8.00
2019-04-23T03:11:47.872Z,8.00
2019-04-23T03:13:12.338Z,8.00
2019-04-23T03:13:53.981Z,8.00
2019-04-23T03:14:50.503Z,8.00
2019-04-23T03:18:08.078Z,8.00
2019-04-23T03:19:29.663Z,8.00
2019-04-23T03:19:53.303Z,8.00
2019-04-23T03:20:59.533Z,8.00
2019-04-23T03:22:01.707Z,8.00
2019-04-23T03:23:00.990Z,8.00
2019-04-23T03:24:16.297Z,8.00
2019-04-23T03:25:07.154Z,8.00
2019-04-23T03:25:45.449Z,8.00
2019-04-23T03:27:41.261Z,8.00
2019-04-23T03:29:59.691Z,4.00
2019-04-23T03:31:57.869Z,4.00
2019-04-23T03:37:48.978Z,8.00
2019-04-23T03:38:48.400Z,8.00
2019-04-23T03:41:02.389Z,8.00
2019-04-23T03:42:02.559Z,4.00
2019-04-23T03:42:47.555Z,8.00
2019-04-23T03:45:58.860Z,8.00
2019-04-23T03:46:41.783Z,12.00
2019-04-23T03:47:48.596Z,12.00
2019-04-23T03:49:09.817Z,12.00
2019-04-23T03:49:55.517Z,16.00
2019-04-23T03:51:52.420Z,20.00
2019-04-23T03:54:46.155Z,28.00
2019-04-23T03:55:54.585Z,28.00
2019-04-23T03:57:47.945Z,36.00
2019-04-23T03:58:51.306Z,40.00
2019-04-23T04:03:12.717Z,64.00
2019-04-23T04:06:03.348Z,84.00
2019-04-23T04:08:00.716Z,100.00
2019-04-23T04:09:03.097Z,104.00
2019-04-23T04:09:49.653Z,112.00
2019-04-23T04:10:55.433Z,124.00
2019-04-23T04:11:37.410Z,132.00
2019-04-23T04:13:51.017Z,152.00
2019-04-23T04:15:06.059Z,160.00
2019-04-23T04:15:55.457Z,172.00
2019-04-23T04:19:46.944Z,216.00
2019-04-23T04:21:09.606Z,228.00
2019-04-23T04:22:59.986Z,256.00
2019-04-23T04:23:57.699Z,268.00
2019-04-23T04:32:02.672Z,392.00
2019-04-23T04:33:00.464Z,404.00
2019-04-23T04:34:01.168Z,424.00
2019-04-23T04:35:47.319Z,456.00
2019-04-23T04:37:56.403Z,496.00
2019-04-23T04:38:44.985Z,520.00
2019-04-23T04:40:02.872Z,544.00
2019-04-23T04:40:54.253Z,576.00
2019-04-23T04:42:08.795Z,608.00
2019-04-23T04:42:59.054Z,648.00
2019-04-23T04:44:04.880Z,680.00
2019-04-23T04:44:56.046Z,708.00
2019-04-23T04:48:49.105Z,1008.00
2019-04-23T04:50:50.779Z,1012.00
2019-04-23T04:52:06.941Z,936.00
2019-04-23T04:54:08.325Z,960.00
2019-04-23T04:54:44.408Z,1044.00
2019-04-23T04:56:56.612Z,1104.00
2019-04-23T04:59:05.254Z,1128.00
2019-04-23T05:00:01.688Z,1168.00
2019-04-23T05:02:01.122Z,1264.00
2019-04-23T05:03:02.824Z,1324.00
2019-04-23T05:03:32.746Z,1380.00
2019-04-23T05:07:11.470Z,1580.00
2019-04-23T05:07:50.074Z,1620.00
2019-04-23T05:10:51.956Z,1812.00
2019-04-23T05:12:54.956Z,1944.00
2019-04-23T05:14:02.288Z,2016.00
2019-04-23T05:15:44.892Z,2152.00
2019-04-23T05:17:51.803Z,2304.00
2019-04-23T05:18:55.239Z,2388.00
2019-04-23T05:19:50.790Z,2480.00
2019-04-23T05:22:52.638Z,2712.00
2019-04-23T05:23:44.679Z,2768.00
2019-04-23T05:24:43.330Z,2836.00
2019-04-23T05:25:46.268Z,2912.00
2019-04-23T05:26:30.375Z,2984.00
2019-04-23T05:27:55.237Z,3088.00
2019-04-23T05:28:52.295Z,3276.00
2019-04-23T05:29:46.906Z,3476.00
2019-04-23T05:30:46.581Z,3524.00
2019-04-23T05:31:32.583Z,3472.00
2019-04-23T05:32:41.687Z,3444.00
2019-04-23T05:33:49.354Z,3436.00
2019-04-23T05:34:44.884Z,3476.00
2019-04-23T05:37:59.072Z,3660.00
2019-04-23T05:38:52.696Z,3820.00
2019-04-23T05:39:39.861Z,3876.00
2019-04-23T05:41:03.787Z,3772.00
2019-04-23T05:41:41.667Z,3692.00
2019-04-23T05:44:44.812Z,3804.00
2019-04-23T05:45:42.702Z,3808.00
2019-04-23T05:47:42.885Z,3924.00
2019-04-23T05:48:40.408Z,3944.00
2019-04-23T05:49:47.460Z,3968.00
2019-04-23T05:51:52.052Z,4024.00
2019-04-23T05:52:45.844Z,4008.00
2019-04-23T05:53:47.206Z,4072.00
2019-04-23T05:54:49.911Z,4064.00
2019-04-23T05:56:02.174Z,4052.00
2019-04-23T05:56:55.076Z,4056.00
2019-04-23T05:57:38.971Z,4044.00
2019-04-23T05:58:51.201Z,4076.00
2019-04-23T05:59:43.673Z,4104.00
2019-04-23T06:00:51.778Z,4132.00
2019-04-23T06:02:48.579Z,4156.00
2019-04-23T06:03:48.890Z,4140.00
2019-04-23T06:04:43.023Z,4128.00
2019-04-23T06:05:49.709Z,4152.00
2019-04-23T06:07:42.534Z,4156.00
2019-04-23T06:08:47.571Z,4156.00
2019-04-23T06:09:39.353Z,4144.00
2019-04-23T06:10:53.501Z,4128.00
2019-04-23T06:11:52.644Z,4084.00
2019-04-23T06:12:39.634Z,4072.00
2019-04-23T06:13:43.001Z,4056.00
2019-04-23T06:16:49.871Z,3940.00
2019-04-23T06:17:43.120Z,3880.00
2019-04-23T06:18:44.357Z,3776.00
2019-04-23T06:19:48.379Z,3632.00
2019-04-23T06:20:54.259Z,3452.00
2019-04-23T06:21:54.886Z,3236.00
2019-04-23T06:22:45.993Z,2980.00
2019-04-23T06:23:48.082Z,2696.00
2019-04-23T06:24:41.471Z,2436.00
2019-04-23T06:26:10.150Z,2284.00
2019-04-23T06:26:45.605Z,2140.00
2019-04-23T06:27:39.747Z,1996.00
2019-04-23T06:28:46.227Z,1872.00
2019-04-23T06:29:39.535Z,1772.00
2019-04-23T06:30:47.025Z,1672.00
2019-04-23T06:31:45.993Z,1796.00
2019-04-23T06:32:38.026Z,1484.00
2019-04-23T06:33:41.672Z,1444.00
2019-04-23T06:34:50.187Z,1404.00
2019-04-23T06:35:45.121Z,1376.00
2019-04-23T06:38:03.144Z,1356.00
2019-04-23T06:38:54.619Z,1356.00
2019-04-23T06:39:41.296Z,1352.00
2019-04-23T06:40:43.073Z,1352.00
2019-04-23T06:41:46.474Z,1356.00
2019-04-23T06:42:36.153Z,1360.00
2019-04-23T06:43:49.725Z,1360.00
2019-04-23T06:44:58.426Z,1360.00
2019-04-23T06:45:37.522Z,1360.00
2019-04-23T06:47:42.964Z,1360.00
2019-04-23T06:48:42.834Z,1360.00
2019-04-23T06:49:47.877Z,1368.00
2019-04-23T06:50:44.277Z,1364.00
2019-04-23T06:52:31.788Z,1376.00
2019-04-23T06:53:35.997Z,1380.00
2019-04-23T06:54:47.998Z,1380.00
2019-04-23T06:55:42.117Z,1384.00
2019-04-23T06:56:54.387Z,1388.00
2019-04-23T06:57:38.421Z,1388.00
2019-04-23T06:59:41.378Z,1392.00
2019-04-23T07:00:42.062Z,1388.00
2019-04-23T07:01:45.160Z,1384.00
2019-04-23T07:03:45.159Z,1384.00
2019-04-23T07:04:49.651Z,1392.00
2019-04-23T07:05:40.946Z,1396.00
2019-04-23T07:07:02.880Z,1384.00
2019-04-23T07:09:39.049Z,1392.00
2019-04-23T07:10:39.006Z,1396.00
2019-04-23T07:12:44.528Z,1400.00
2019-04-23T07:14:51.780Z,1408.00
2019-04-23T07:15:48.361Z,1404.00
2019-04-23T07:16:38.489Z,1408.00
2019-04-23T07:17:30.769Z,1412.00
2019-04-23T07:18:41.230Z,1416.00
2019-04-23T07:19:54.865Z,1416.00
2019-04-23T07:20:43.655Z,1376.00
2019-04-23T07:21:35.638Z,1432.00
2019-04-23T07:22:39.423Z,1436.00
2019-04-23T07:23:52.633Z,1444.00
2019-04-23T07:24:43.990Z,1448.00
2019-04-23T07:25:44.258Z,1448.00
2019-04-23T07:26:39.022Z,1448.00
2019-04-23T07:27:37.832Z,1452.00
2019-04-23T07:28:49.826Z,1440.00
2019-04-23T07:29:42.787Z,1444.00
2019-04-23T07:30:38.468Z,1448.00
2019-04-23T07:31:59.273Z,1456.00
2019-04-23T07:32:47.856Z,1464.00
2019-04-23T07:33:35.098Z,1464.00
2019-04-23T07:34:43.804Z,1472.00
2019-04-23T07:35:41.421Z,1476.00
2019-04-23T07:36:40.586Z,1476.00
2019-04-23T07:37:47.534Z,1472.00
2019-04-23T07:38:47.617Z,1468.00
2019-04-23T07:39:47.180Z,1484.00
2019-04-23T07:40:40.981Z,1488.00
2019-04-23T07:42:03.587Z,1496.00
2019-04-23T07:42:42.109Z,1492.00
2019-04-23T07:43:50.280Z,1500.00
2019-04-23T07:44:52.023Z,1508.00
2019-04-23T07:45:45.414Z,1508.00
2019-04-23T07:46:56.280Z,1484.00
2019-04-23T07:47:48.290Z,1476.00
2019-04-23T07:48:37.130Z,1488.00
2019-04-23T07:49:56.058Z,1484.00
2019-04-23T07:50:45.582Z,1492.00
2019-04-23T07:51:46.961Z,1492.00
2019-04-23T07:52:54.568Z,1500.00
2019-04-23T07:53:46.445Z,1532.00
2019-04-23T07:54:45.634Z,1544.00
2019-04-23T07:56:42.190Z,1540.00
2019-04-23T07:57:42.767Z,1564.00
2019-04-23T07:58:33.522Z,1592.00
2019-04-23T07:59:48.637Z,1572.00
2019-04-23T08:01:39.138Z,1580.00
2019-04-23T08:02:38.465Z,1584.00
2019-04-23T08:03:43.898Z,1592.00
2019-04-23T08:04:57.913Z,1608.00
2019-04-23T08:05:39.031Z,1692.00
2019-04-23T08:06:40.031Z,1808.00
2019-04-23T08:07:47.199Z,1656.00
2019-04-23T08:08:43.305Z,1640.00
2019-04-23T08:09:50.061Z,1644.00
2019-04-23T08:10:46.627Z,1644.00
2019-04-23T08:11:40.656Z,1696.00
2019-04-23T08:13:47.741Z,1796.00
2019-04-23T08:14:48.222Z,1868.00
2019-04-23T08:15:42.599Z,1848.00
2019-04-23T08:17:37.483Z,1756.00
2019-04-23T08:18:45.165Z,1720.00
2019-04-23T08:19:49.860Z,1724.00
2019-04-23T08:20:47.342Z,1724.00
2019-04-23T08:21:40.296Z,1740.00
2019-04-23T08:22:39.271Z,1760.00
2019-04-23T08:23:42.557Z,1788.00
2019-04-23T08:24:50.523Z,1808.00
2019-04-23T08:25:47.142Z,1800.00
2019-04-23T08:27:42.079Z,1792.00
2019-04-23T08:28:52.088Z,1804.00
2019-04-23T08:29:32.341Z,1816.00
2019-04-23T08:30:42.339Z,1824.00
2019-04-23T08:31:46.716Z,1836.00
2019-04-23T08:32:35.118Z,1848.00
2019-04-23T08:33:53.061Z,1864.00
2019-04-23T08:34:58.568Z,1868.00
2019-04-23T08:35:43.650Z,1876.00
2019-04-23T08:36:50.022Z,1912.00
2019-04-23T08:37:58.479Z,1956.00
2019-04-23T08:38:57.006Z,1956.00
2019-04-23T08:40:54.379Z,1992.00
2019-04-23T08:41:59.529Z,1980.00
2019-04-23T08:42:46.781Z,1988.00
2019-04-23T08:43:49.386Z,2028.00
2019-04-23T08:44:44.684Z,2040.00
2019-04-23T08:45:38.409Z,2052.00
2019-04-23T08:46:52.017Z,2048.00
2019-04-23T08:47:49.049Z,2072.00
2019-04-23T08:48:41.609Z,2100.00
2019-04-23T08:49:53.666Z,2128.00
2019-04-23T08:50:44.265Z,2132.00
2019-04-23T08:51:54.734Z,2140.00
2019-04-23T08:52:42.946Z,2184.00
2019-04-23T08:53:46.434Z,2172.00
2019-04-23T08:54:47.892Z,2188.00
2019-04-23T08:55:44.548Z,2212.00
2019-04-23T08:56:48.039Z,2276.00
2019-04-23T08:57:36.636Z,2388.00
2019-04-23T08:59:01.089Z,2688.00
2019-04-23T08:59:43.799Z,2972.00
2019-04-23T09:00:47.372Z,2944.00
2019-04-23T09:01:59.454Z,2888.00
2019-04-23T09:02:40.497Z,2568.00
2019-04-23T09:03:51.485Z,2440.00
2019-04-23T09:04:50.215Z,2532.00
2019-04-23T09:05:46.811Z,2472.00
2019-04-23T09:06:50.192Z,2440.00
2019-04-23T09:07:45.679Z,2400.00
2019-04-23T09:09:45.451Z,2356.00
2019-04-23T09:11:56.259Z,2328.00
2019-04-23T09:12:45.840Z,2356.00
2019-04-23T09:14:48.544Z,2392.00
2019-04-23T09:15:44.981Z,2404.00
2019-04-23T09:16:44.875Z,2392.00
2019-04-23T09:17:49.882Z,2388.00
2019-04-23T09:18:37.108Z,2416.00
2019-04-23T09:19:56.029Z,2424.00
2019-04-23T09:20:44.545Z,2428.00
2019-04-23T09:21:41.784Z,2428.00
2019-04-23T09:22:40.063Z,2424.00
2019-04-23T09:24:53.386Z,2412.00
2019-04-23T09:26:41.502Z,2464.00
2019-04-23T09:27:40.115Z,2460.00
2019-04-23T09:28:45.485Z,2460.00
2019-04-23T09:29:51.480Z,2132.00
2019-04-23T09:30:42.329Z,2276.00
2019-04-23T09:32:36.901Z,2524.00
2019-04-23T09:33:48.495Z,2892.00
2019-04-23T09:34:46.642Z,2524.00
2019-04-23T09:35:38.977Z,2020.00
2019-04-23T09:36:42.013Z,2492.00
2019-04-23T09:38:39.566Z,2652.00
2019-04-23T09:39:44.833Z,2576.00
2019-04-23T09:40:54.394Z,2580.00
2019-04-23T09:41:37.842Z,2556.00
2019-04-23T09:42:50.361Z,2536.00
2019-04-23T09:43:37.137Z,2536.00
2019-04-23T09:44:57.099Z,2540.00
2019-04-23T09:45:49.786Z,2508.00
2019-04-23T09:46:49.427Z,2608.00
2019-04-23T09:47:49.324Z,2688.00
2019-04-23T09:48:49.045Z,2672.00
2019-04-23T09:49:39.451Z,2672.00
2019-04-23T09:50:46.478Z,2648.00
2019-04-23T09:51:45.189Z,2656.00
2019-04-23T09:52:50.606Z,2656.00
2019-04-23T09:53:48.815Z,2736.00
2019-04-23T09:54:51.352Z,2688.00
2019-04-23T09:55:41.804Z,2708.00
2019-04-23T09:56:44.609Z,2680.00
2019-04-23T09:57:46.495Z,2672.00
2019-04-23T09:58:41.503Z,2660.00
2019-04-23T09:59:47.247Z,2752.00
2019-04-23T10:00:42.057Z,2796.00
2019-04-23T10:01:40.935Z,2828.00
2019-04-23T10:02:33.958Z,2804.00
2019-04-23T10:03:25.513Z,2784.00
2019-04-23T10:04:28.272Z,2752.00
2019-04-23T10:05:28.724Z,2736.00
2019-04-23T10:06:22.631Z,2740.00
2019-04-23T10:07:28.871Z,2764.00
2019-04-23T10:08:21.788Z,2844.00
2019-04-23T10:09:16.711Z,3124.00
2019-04-23T10:10:16.331Z,3072.00
2019-04-23T10:11:16.053Z,3112.00
2019-04-23T10:12:14.784Z,3096.00
2019-04-23T10:13:15.878Z,3076.00
2019-04-23T10:14:14.831Z,2976.00
2019-04-23T10:15:22.886Z,2892.00
2019-04-23T10:16:17.224Z,2872.00
2019-04-23T10:17:16.073Z,2876.00
2019-04-23T10:18:16.055Z,2932.00
2019-04-23T10:19:15.120Z,2988.00
2019-04-23T10:20:16.259Z,3028.00
2019-04-23T10:21:15.518Z,3120.00
2019-04-23T10:22:15.281Z,3268.00
2019-04-23T10:23:15.911Z,3312.00
2019-04-23T10:24:15.166Z,3244.00
2019-04-23T10:25:15.208Z,2836.00
2019-04-23T10:26:16.275Z,3724.00
2019-04-23T10:27:14.895Z,3736.00
2019-04-23T10:28:16.707Z,3808.00
2019-04-23T10:29:15.945Z,3680.00
2019-04-23T10:30:14.650Z,3600.00
2019-04-23T10:31:14.658Z,3548.00
2019-04-23T10:32:15.797Z,3564.00
2019-04-23T10:33:15.739Z,3608.00
2019-04-23T10:34:14.857Z,3676.00
2019-04-23T10:35:28.553Z,3760.00
2019-04-23T10:36:19.127Z,7004.00
2019-04-23T10:37:15.592Z,7884.00
2019-04-23T10:38:18.171Z,8520.00
2019-04-23T10:39:21.180Z,5428.00
2019-04-23T10:40:19.443Z,4644.00
2019-04-23T10:41:16.137Z,4344.00
2019-04-23T10:42:16.004Z,3680.00
2019-04-23T10:43:15.155Z,3532.00
2019-04-23T10:44:14.631Z,3436.00
2019-04-23T10:45:30.369Z,3412.00
2019-04-23T10:46:36.438Z,3500.00
2019-04-23T10:47:45.323Z,3564.00
2019-04-23T10:48:56.174Z,3620.00
2019-04-23T10:50:46.147Z,3592.00
2019-04-23T10:51:59.945Z,3608.00
2019-04-23T10:52:37.654Z,3620.00
2019-04-23T10:54:02.817Z,3592.00
2019-04-23T10:57:39.221Z,3640.00
2019-04-23T10:58:38.466Z,3652.00
2019-04-23T11:00:44.849Z,3616.00
2019-04-23T11:01:46.714Z,3736.00
2019-04-23T11:02:59.053Z,4176.00
2019-04-23T11:04:53.712Z,4516.00
2019-04-23T11:05:50.239Z,4176.00
2019-04-23T11:06:45.103Z,3920.00
2019-04-23T11:07:51.400Z,3828.00
2019-04-23T11:08:45.558Z,3884.00
2019-04-23T11:10:46.771Z,4388.00
2019-04-23T11:11:44.873Z,4292.00
2019-04-23T11:13:45.211Z,3956.00
2019-04-23T11:17:46.316Z,3928.00
2019-04-23T11:18:50.173Z,3968.00
2019-04-23T11:19:52.065Z,4060.00
2019-04-23T11:20:45.198Z,4132.00
2019-04-23T11:21:47.973Z,4240.00
2019-04-23T11:22:45.095Z,4092.00
2019-04-23T11:23:46.508Z,4040.00
2019-04-23T11:24:48.414Z,4040.00
2019-04-23T11:25:42.915Z,4372.00
2019-04-23T11:26:42.351Z,4812.00
2019-04-23T11:27:42.405Z,4616.00
2019-04-23T11:28:38.412Z,4880.00
2019-04-23T11:30:14.978Z,5544.00
2019-04-23T11:36:01.467Z,5072.00
2019-04-23T11:38:06.478Z,5368.00
2019-04-23T11:38:55.997Z,4500.00
2019-04-23T11:39:53.914Z,3624.00
2019-04-23T11:40:36.953Z,4264.00
2019-04-23T11:42:42.795Z,5476.00
2019-04-23T11:43:38.749Z,5328.00
2019-04-23T11:49:00.941Z,4452.00
2019-04-23T11:51:17.528Z,5696.00
2019-04-23T11:54:50.097Z,5480.00
2019-04-23T11:55:49.430Z,5372.00
2019-04-23T11:57:54.612Z,5144.00
2019-04-23T11:58:42.187Z,4984.00
2019-04-23T12:00:51.134Z,5676.00
2019-04-23T12:02:43.332Z,5184.00
2019-04-23T12:03:57.113Z,4816.00
2019-04-23T12:06:04.184Z,4460.00
2019-04-23T12:06:50.236Z,4352.00
2019-04-23T12:07:41.239Z,4400.00
2019-04-23T12:08:44.417Z,4520.00
2019-04-23T12:10:47.838Z,4112.00
2019-04-23T12:11:52.819Z,4872.00
2019-04-23T12:12:39.572Z,5048.00
2019-04-23T12:13:52.634Z,4636.00
2019-04-23T12:14:50.907Z,4412.00
2019-04-23T12:16:57.333Z,4192.00
2019-04-23T12:17:51.251Z,4148.00
2019-04-23T12:18:58.129Z,4064.00
2019-04-23T12:20:41.180Z,4140.00
2019-04-23T12:21:43.809Z,4188.00
2019-04-23T12:22:46.752Z,4172.00
2019-04-23T12:25:48.375Z,4232.00
2019-04-23T12:26:55.889Z,4320.00
2019-04-23T12:27:33.288Z,4576.00
2019-04-23T12:28:44.123Z,4968.00
2019-04-23T12:30:45.139Z,5356.00
2019-04-23T12:31:47.721Z,5508.00
2019-04-23T12:32:48.423Z,5116.00
2019-04-23T12:33:51.904Z,4984.00
2019-04-23T12:34:58.504Z,5308.00
2019-04-23T12:35:50.078Z,5792.00
2019-04-23T12:36:43.714Z,5168.00
2019-04-23T12:37:41.321Z,5248.00
2019-04-23T12:38:38.830Z,5320.00
2019-04-23T12:39:42.608Z,5248.00
2019-04-23T12:40:38.278Z,4960.00
2019-04-23T12:41:43.404Z,4576.00
2019-04-23T12:43:41.857Z,4740.00
2019-04-23T12:44:52.550Z,4812.00
2019-04-23T12:45:37.458Z,5108.00
2019-04-23T12:46:45.743Z,4980.00
2019-04-23T12:47:50.088Z,4556.00
2019-04-23T12:48:46.844Z,5144.00
2019-04-23T12:50:05.126Z,4720.00
2019-04-23T12:51:46.877Z,4864.00
2019-04-23T12:52:49.056Z,5788.00
2019-04-23T12:55:02.844Z,5384.00
2019-04-23T12:55:41.760Z,5916.00
2019-04-23T12:56:46.435Z,6060.00
2019-04-23T12:57:47.346Z,5728.00
2019-04-23T12:58:32.211Z,5796.00
2019-04-23T12:59:44.067Z,5768.00
2019-04-23T13:00:36.358Z,5752.00
2019-04-23T13:01:49.717Z,6016.00
2019-04-23T13:02:44.360Z,5000.00
2019-04-23T13:03:41.147Z,4392.00
2019-04-23T13:05:34.097Z,6212.00
2019-04-23T13:06:45.325Z,6480.00
2019-04-23T13:07:50.668Z,6064.00
2019-04-23T13:08:48.419Z,6040.00
2019-04-23T13:09:48.844Z,6400.00
2019-04-23T13:10:41.861Z,6340.00
2019-04-23T13:11:40.854Z,6028.00
2019-04-23T13:13:03.983Z,5688.00
2019-04-23T13:13:58.753Z,5376.00
2019-04-23T13:14:49.555Z,5552.00
2019-04-23T13:15:40.786Z,5452.00
2019-04-23T13:16:53.656Z,5232.00
2019-04-23T13:17:54.109Z,5104.00
2019-04-23T13:18:44.743Z,5216.00
2019-04-23T13:19:47.406Z,5440.00
2019-04-23T13:20:38.469Z,5984.00
2019-04-23T13:21:57.150Z,5448.00
2019-04-23T13:22:48.939Z,5116.00
2019-04-23T13:23:41.039Z,5080.00
2019-04-23T13:24:42.175Z,4720.00
2019-04-23T13:26:37.989Z,4884.00
2019-04-23T13:27:50.172Z,4904.00
2019-04-23T13:28:37.524Z,4896.00
2019-04-23T13:30:46.705Z,4692.00
2019-04-23T13:31:40.966Z,4772.00
2019-04-23T13:32:46.423Z,4988.00
2019-04-23T13:33:44.100Z,5236.00
2019-04-23T13:34:48.462Z,5088.00
2019-04-23T13:36:45.059Z,5460.00
2019-04-23T13:37:59.340Z,5340.00
2019-04-23T13:40:53.155Z,5152.00
2019-04-23T13:41:38.834Z,4872.00
2019-04-23T13:42:45.979Z,5248.00
2019-04-23T13:43:47.771Z,5112.00
2019-04-23T13:44:46.247Z,5232.00
2019-04-23T13:45:59.294Z,5136.00
2019-04-23T13:46:39.874Z,5220.00
2019-04-23T13:48:40.102Z,5312.00
2019-04-23T13:49:37.548Z,4972.00
2019-04-23T13:50:57.800Z,4632.00
2019-04-23T13:51:40.020Z,4752.00
2019-04-23T13:54:59.966Z,4740.00
2019-04-23T13:55:42.653Z,5112.00
2019-04-23T13:57:12.851Z,4788.00
2019-04-23T13:58:48.838Z,4952.00
2019-04-23T13:59:44.309Z,5004.00
2019-04-23T14:01:00.659Z,4392.00
2019-04-23T14:01:57.888Z,4408.00
2019-04-23T14:02:43.912Z,4740.00
2019-04-23T14:03:50.493Z,4892.00
2019-04-23T14:04:50.614Z,4872.00
2019-04-23T14:05:41.197Z,4752.00
2019-04-23T14:06:43.562Z,4736.00
2019-04-23T14:07:48.501Z,4676.00
2019-04-23T14:10:48.038Z,5124.00
2019-04-23T14:11:54.961Z,5112.00
2019-04-23T14:12:53.414Z,5072.00
2019-04-23T14:13:52.105Z,5048.00
2019-04-23T14:14:47.901Z,5264.00
2019-04-23T14:16:56.978Z,5424.00
2019-04-23T14:18:08.874Z,5984.00
2019-04-23T14:19:47.301Z,5980.00
2019-04-23T14:20:40.437Z,5508.00
2019-04-23T14:21:37.560Z,5156.00
2019-04-23T14:22:59.701Z,4712.00
2019-04-23T14:24:59.374Z,5628.00
2019-04-23T14:25:51.191Z,5096.00
2019-04-23T14:26:41.798Z,4640.00
2019-04-23T14:27:49.613Z,4864.00
2019-04-23T14:28:44.855Z,4904.00
2019-04-23T14:29:48.103Z,4708.00
2019-04-23T14:30:46.795Z,4408.00
2019-04-23T14:31:45.572Z,4644.00
2019-04-23T14:32:48.703Z,4700.00
2019-04-23T14:33:54.878Z,4656.00
2019-04-23T14:34:54.648Z,4548.00
2019-04-23T14:36:47.653Z,4832.00
2019-04-23T14:37:50.990Z,4852.00
2019-04-23T14:38:43.751Z,4816.00
2019-04-23T14:41:48.865Z,4860.00
2019-04-23T14:43:49.407Z,4896.00
2019-04-23T14:44:41.019Z,4980.00
2019-04-23T14:46:23.611Z,4756.00
2019-04-23T14:47:48.753Z,4616.00
2019-04-23T14:48:46.262Z,4424.00
2019-04-23T14:50:46.133Z,4492.00
2019-04-23T14:52:50.766Z,4636.00
2019-04-23T14:54:03.219Z,4632.00
2019-04-23T14:55:11.367Z,4572.00
2019-04-23T14:56:46.295Z,4524.00
2019-04-23T14:57:53.465Z,4584.00
2019-04-23T14:58:50.558Z,4684.00
2019-04-23T14:59:48.130Z,4716.00
2019-04-23T15:01:02.850Z,4640.00
2019-04-23T15:01:39.876Z,4284.00
2019-04-23T15:02:51.852Z,4392.00
2019-04-23T15:05:56.217Z,4872.00
2019-04-23T15:06:43.820Z,4660.00
2019-04-23T15:07:46.459Z,4520.00
2019-04-23T15:08:52.060Z,4408.00
2019-04-23T15:09:43.845Z,4328.00
2019-04-23T15:10:56.685Z,4272.00
2019-04-23T15:11:53.385Z,4256.00
2019-04-23T15:12:47.791Z,4272.00
2019-04-23T15:13:45.608Z,4316.00
2019-04-23T15:14:52.432Z,4340.00
2019-04-23T15:15:44.211Z,4392.00
2019-04-23T15:17:40.622Z,4452.00
2019-04-23T15:18:52.968Z,4492.00
2019-04-23T15:20:55.878Z,4612.00
2019-04-23T15:22:05.282Z,4664.00
2019-04-23T15:22:57.795Z,4692.00
2019-04-23T15:25:13.653Z,5060.00
2019-04-23T15:28:06.164Z,5348.00
2019-04-23T15:28:18.770Z,5456.00
2019-04-23T15:29:31.894Z,5420.00
2019-04-23T15:30:48.262Z,5380.00
2019-04-23T15:33:56.575Z,5004.00
2019-04-23T15:34:36.832Z,4968.00
2019-04-23T15:35:57.072Z,4792.00